Qu'Appelle, Canada
Current Conditions -  °F | °C
As of 6:00 PM on Friday 21 Nov 2014 (Local Time) from CYQR Reporting Station
Broken Clouds Broken Clouds  
Wind Chill: 31°   Ceiling: 21000
Heat Index: 39°   Visibility: 15mi
Dew Point: 34°   Wind: 14mph
Humidity: 81%   Direction: 270°W
Pressure: 29.56"   Gusts: NA
Location:  50.53°N, 103.87°W
Report Text: CYQR 220000Z 27012KT 15SM FEW027 SCT070 BKN210 04/01 A2956 RMK SC1AC3CI1 SLP036
Loading
Personal Weather Stations






























Interactive Weather Map New forecast layout! Learn more

10-Day Weather Forecast

Advertisements
Track Severe Weather on mobile